MAPA DE AEROPUERTO

INFORMACIÓN METAR y TAF

METAR FOR LEBB
ADDS - METARS form results

(0427 UTC 20 September 2021)
Data provider http://aviationweather.gov/metar/data/
 
METAR text: LEBB 200400Z VRB02KT 9999 SCT025 SCT050 16/15 Q1023 REDZ TEMPO 3000 RA
Conditions at: LEBB (BILBAO/SONDICA , ES) observed 0400 UTC 20 September 2021
Temperature: 16.0°C (61°F)
Dewpoint: 15.0°C (59°F) [RH = 94%]
Pressure (altimeter): 30.21 inches Hg (1023.0 mb)
Winds: variable direction winds at 2 MPH (2 knots; 1.0 m/s)
Visibility: 6 or more miles (10+ km)
Ceiling: at least 12,000 feet AGL
Clouds: scattered clouds at 2500 feet AGL
scattered clouds at 5000 feet AGL
Weather: no significant weather observed at this time

METAR text: LEBB 200330Z 31003KT 240V360 9999 DZ SCT021 SCT030 16/15 Q1023 TEMPO 3000 RA
Conditions at: LEBB (BILBAO/SONDICA , ES) observed 0330 UTC 20 September 2021
Temperature: 16.0°C (61°F)
Dewpoint: 15.0°C (59°F) [RH = 94%]
Pressure (altimeter): 30.21 inches Hg (1023.0 mb)
Winds: from the NW (310 degrees) at 3 MPH (3 knots; 1.5 m/s)
Visibility: 6 or more miles (10+ km)
Ceiling: at least 12,000 feet AGL
Clouds: scattered clouds at 2100 feet AGL
scattered clouds at 3000 feet AGL
Weather: DZ  (moderate drizzle)

Forecast for: LEBB (BILBAO/SONDICA , ES)
Text: TAF LEBB 192300Z 2000/2024 30009KT 9999 SCT030 SCT040 TX19/2014Z TN14/2006Z
Forecast period: 0000 UTC 20 September 2021 to 0000 UTC 21 September 2021
Forecast type: FROM: standard forecast or significant change
Winds: from the WNW (300 degrees) at 10 MPH (9 knots; 4.6 m/s)
Visibility: 6 or more miles (10+ km)
Ceiling: at least 12,000 feet AGL
Clouds: scattered clouds at 3000 feet AGL
scattered clouds at 4000 feet AGL
Weather: no significant weather forecast for this period
Text: TEMPO 2000/2014 3000 RA SHRA BKN010 SCT030TCU
Forecast period: 0000 to 1400 UTC 20 September 2021
Forecast type: TEMPORARY: The following changes expected for less than half the time period
Visibility: 1.86 miles (2.99 km)
Ceiling: 1000 feet AGL
Clouds: broken clouds at 1000 feet AGL
scattered clouds at 3000 feet AGL
Weather: RA SHRA  (moderate rain, rain showers)
Text: PROB30
Forecast period: 0000 to 0600 UTC 20 September 2021
Forecast type: TEMPORARY: The following changes expected for less than half the time period
Visibility: 0.93 miles (1.50 km)
Ceiling: 1000 feet AGL
Clouds: broken clouds at 1000 feet AGL
scattered clouds at 2500 feet AGL
Weather: TSRA  (rain associated with thunderstorm(s))
Text: TEMPO 2000/2006 1500 TSRA BKN010 SCT025CB
Forecast period: 0000 to 0700 UTC 20 September 2021
Forecast type: TEMPORARY: The following changes expected for less than half the time period
Visibility: 0.50 miles (0.80 km)
Ceiling: 500 feet AGL
Clouds: broken clouds at 500 feet AGL
broken clouds at 1000 feet AGL
Weather: BCFG  (patches of fog)